Time,TemperatureF,DewpointF,PressureIn,WindDirection,WindDirectionDegrees,WindSpeedMPH,WindSpeedGustMPH,Humidity,HourlyPrecipIn,Conditions,Clouds,dailyrainin,SoftwareType,DateUTC
2013-07-26 00:04:00,60.1,49.1,29.97,North,-999,0.0,0.0,67,0.00,,,-99.99,FreeWX-Wi 1.01,2013-07-26 07:04:00,
2013-07-26 00:09:00,59.9,49.3,29.97,North,-999,0.0,0.0,68,0.00,,,-99.99,FreeWX-Wi 1.01,2013-07-26 07:09:00,
2013-07-26 00:14:00,59.9,49.6,29.97,North,-999,0.0,0.0,69,0.00,,,-99.99,FreeWX-Wi 1.01,2013-07-26 07:14:00,
2013-07-26 00:19:00,60.1,50.2,29.97,North,-999,0.0,0.0,70,0.00,,,-99.99,FreeWX-Wi 1.01,2013-07-26 07:19:00,
2013-07-26 00:24:00,60.1,50.7,29.97,North,-999,0.0,0.0,71,0.00,,,-99.99,FreeWX-Wi 1.01,2013-07-26 07:24:00,
2013-07-26 00:29:00,60.1,50.2,29.97,North,-999,0.0,0.0,70,0.00,,,-99.99,FreeWX-Wi 1.01,2013-07-26 07:29:00,
2013-07-26 00:34:00,59.9,50.0,29.97,North,-999,0.0,0.0,70,0.00,,,-99.99,FreeWX-Wi 1.01,2013-07-26 07:34:00,
2013-07-26 00:39:00,59.7,50.0,29.97,North,-999,0.0,0.0,70,0.00,,,-99.99,FreeWX-Wi 1.01,2013-07-26 07:39:00,
2013-07-26 00:44:00,59.5,49.8,29.97,North,-999,0.0,0.0,70,0.00,,,-99.99,FreeWX-Wi 1.01,2013-07-26 07:44:00,
2013-07-26 00:49:00,59.4,50.4,29.97,North,-999,0.0,0.0,72,0.00,,,-99.99,FreeWX-Wi 1.01,2013-07-26 07:49:00,
2013-07-26 00:54:00,59.5,50.5,29.97,North,-999,0.0,0.0,72,0.00,,,-99.99,FreeWX-Wi 1.01,2013-07-26 07:54:00,
2013-07-26 00:59:00,59.4,50.4,29.97,North,-999,0.0,0.0,72,0.00,,,-99.99,FreeWX-Wi 1.01,2013-07-26 07:59:00,
2013-07-26 01:04:00,59.4,51.1,30.00,North,-999,0.0,0.0,74,0.00,,,-99.99,FreeWX-Wi 1.01,2013-07-26 08:04:00,
2013-07-26 01:09:00,59.4,51.1,30.00,North,-999,0.0,0.0,74,0.00,,,-99.99,FreeWX-Wi 1.01,2013-07-26 08:09:00,
2013-07-26 01:14:00,59.0,50.4,30.00,North,-999,0.0,0.0,73,0.00,,,-99.99,FreeWX-Wi 1.01,2013-07-26 08:14:00,
2013-07-26 01:19:00,58.6,50.4,30.00,North,-999,0.0,0.0,74,0.00,,,-99.99,FreeWX-Wi 1.01,2013-07-26 08:19:00,
2013-07-26 01:24:00,58.5,50.5,30.00,North,-999,0.0,0.0,75,0.00,,,-99.99,FreeWX-Wi 1.01,2013-07-26 08:24:00,
2013-07-26 01:29:00,58.3,50.0,30.00,North,-999,0.0,2.7,74,0.00,,,-99.99,FreeWX-Wi 1.01,2013-07-26 08:29:00,
2013-07-26 01:34:00,58.3,50.4,30.00,North,-999,0.0,2.7,75,0.00,,,-99.99,FreeWX-Wi 1.01,2013-07-26 08:34:00,
2013-07-26 01:39:00,58.1,49.8,30.00,North,-999,0.0,0.0,74,0.00,,,-99.99,FreeWX-Wi 1.01,2013-07-26 08:39:00,
2013-07-26 01:44:00,57.9,49.6,30.00,North,-999,0.0,0.0,74,0.00,,,-99.99,FreeWX-Wi 1.01,2013-07-26 08:44:00,
2013-07-26 01:49:00,57.9,50.0,30.00,North,-999,0.0,0.0,75,0.00,,,-99.99,FreeWX-Wi 1.01,2013-07-26 08:49:00,
2013-07-26 01:54:00,57.7,49.8,30.00,North,-999,0.0,0.0,75,0.00,,,-99.99,FreeWX-Wi 1.01,2013-07-26 08:54:00,
2013-07-26 01:59:00,57.6,49.6,30.00,North,-999,0.0,0.0,75,0.00,,,-99.99,FreeWX-Wi 1.01,2013-07-26 08:59:00,
2013-07-26 02:04:00,57.6,49.6,30.00,North,-999,0.0,0.0,75,0.00,,,-99.99,FreeWX-Wi 1.01,2013-07-26 09:04:00,
2013-07-26 02:09:00,57.4,49.5,30.00,North,-999,0.0,0.0,75,0.00,,,-99.99,FreeWX-Wi 1.01,2013-07-26 09:09:00,
2013-07-26 02:14:00,57.4,49.5,30.00,North,-999,0.0,0.0,75,0.00,,,-99.99,FreeWX-Wi 1.01,2013-07-26 09:14:00,
2013-07-26 02:19:00,57.2,49.3,30.00,North,-999,0.0,0.0,75,0.00,,,-99.99,FreeWX-Wi 1.01,2013-07-26 09:19:00,
2013-07-26 02:24:00,56.8,48.9,30.00,North,-999,0.0,0.0,75,0.00,,,-99.99,FreeWX-Wi 1.01,2013-07-26 09:24:00,
2013-07-26 02:29:00,56.8,49.3,30.00,North,-999,0.0,0.0,76,0.00,,,-99.99,FreeWX-Wi 1.01,2013-07-26 09:29:00,
2013-07-26 02:34:00,56.7,49.1,30.00,North,-999,0.0,0.0,76,0.00,,,-99.99,FreeWX-Wi 1.01,2013-07-26 09:34:00,
2013-07-26 02:39:00,56.5,49.3,30.00,North,-999,0.0,0.0,77,0.00,,,-99.99,FreeWX-Wi 1.01,2013-07-26 09:39:00,
2013-07-26 02:44:00,56.7,50.9,30.00,North,-999,0.0,0.0,81,0.00,,,-99.99,FreeWX-Wi 1.01,2013-07-26 09:44:00,
2013-07-26 02:49:00,56.5,50.7,30.00,North,-999,0.0,0.0,81,0.00,,,-99.99,FreeWX-Wi 1.01,2013-07-26 09:49:00,
2013-07-26 02:54:00,56.3,50.5,30.00,North,-999,0.0,0.0,81,0.00,,,-99.99,FreeWX-Wi 1.01,2013-07-26 09:54:00,
2013-07-26 03:00:00,56.3,50.5,30.00,North,-999,0.0,0.0,81,0.00,,,-99.99,FreeWX-Wi 1.01,2013-07-26 10:00:00,
2013-07-26 03:05:00,56.5,51.1,30.00,North,-999,0.0,0.0,82,0.00,,,-99.99,FreeWX-Wi 1.01,2013-07-26 10:05:00,
2013-07-26 03:10:00,56.3,50.9,30.00,North,-999,0.0,0.0,82,0.00,,,-99.99,FreeWX-Wi 1.01,2013-07-26 10:10:00,
2013-07-26 03:15:00,56.5,51.4,30.00,North,-999,0.0,0.0,83,0.00,,,-99.99,FreeWX-Wi 1.01,2013-07-26 10:15:00,
2013-07-26 03:20:00,56.5,51.4,30.00,North,-999,0.0,0.0,83,0.00,,,-99.99,FreeWX-Wi 1.01,2013-07-26 10:20:00,
2013-07-26 03:25:00,56.5,51.6,30.00,North,-999,0.0,0.0,84,0.00,,,-99.99,FreeWX-Wi 1.01,2013-07-26 10:25:00,
2013-07-26 03:30:00,56.5,51.6,30.00,North,-999,0.0,0.0,84,0.00,,,-99.99,FreeWX-Wi 1.01,2013-07-26 10:30:00,
2013-07-26 03:35:00,56.1,51.3,30.00,North,-999,0.0,0.0,84,0.00,,,-99.99,FreeWX-Wi 1.01,2013-07-26 10:35:00,
2013-07-26 03:40:00,55.9,51.3,30.00,North,-999,0.0,0.0,84,0.00,,,-99.99,FreeWX-Wi 1.01,2013-07-26 10:40:00,
2013-07-26 03:45:00,55.8,51.3,30.00,North,-999,0.0,0.0,85,0.00,,,-99.99,FreeWX-Wi 1.01,2013-07-26 10:45:00,
2013-07-26 03:50:00,55.6,51.1,30.00,North,-999,0.0,0.0,85,0.00,,,-99.99,FreeWX-Wi 1.01,2013-07-26 10:50:00,
2013-07-26 03:55:00,55.6,51.4,30.00,North,-999,0.0,0.0,86,0.00,,,-99.99,FreeWX-Wi 1.01,2013-07-26 10:55:00,
2013-07-26 04:00:00,55.6,51.4,30.00,North,-999,0.0,0.0,86,0.00,,,-99.99,FreeWX-Wi 1.01,2013-07-26 11:00:00,
2013-07-26 04:05:00,55.6,51.8,30.00,North,-999,0.0,0.0,87,0.00,,,-99.99,FreeWX-Wi 1.01,2013-07-26 11:05:00,
2013-07-26 04:10:00,55.6,52.2,30.00,North,-999,0.0,0.0,88,0.00,,,-99.99,FreeWX-Wi 1.01,2013-07-26 11:10:00,
2013-07-26 04:15:00,55.6,52.3,30.00,North,-999,0.0,0.0,89,0.00,,,-99.99,FreeWX-Wi 1.01,2013-07-26 11:15:00,
2013-07-26 04:20:00,55.2,52.0,30.00,North,-999,0.0,0.0,89,0.00,,,-99.99,FreeWX-Wi 1.01,2013-07-26 11:20:00,
2013-07-26 04:25:00,54.9,52.0,30.00,North,-999,0.0,0.0,90,0.00,,,-99.99,FreeWX-Wi 1.01,2013-07-26 11:25:00,
2013-07-26 04:30:00,54.7,51.8,30.00,North,-999,0.0,0.0,90,0.00,,,-99.99,FreeWX-Wi 1.01,2013-07-26 11:30:00,
2013-07-26 04:35:00,54.7,51.8,30.00,North,-999,0.0,0.0,90,0.00,,,-99.99,FreeWX-Wi 1.01,2013-07-26 11:35:00,
2013-07-26 04:40:00,54.7,51.8,30.00,North,-999,0.0,0.0,90,0.00,,,-99.99,FreeWX-Wi 1.01,2013-07-26 11:40:00,
2013-07-26 04:45:00,54.7,52.2,30.00,North,-999,0.0,0.0,91,0.00,,,-99.99,FreeWX-Wi 1.01,2013-07-26 11:45:00,
2013-07-26 04:50:00,54.7,52.2,30.03,North,-999,0.0,0.0,91,0.00,,,-99.99,FreeWX-Wi 1.01,2013-07-26 11:50:00,
2013-07-26 04:56:00,54.5,52.0,30.03,North,-999,0.0,0.0,91,0.00,,,-99.99,FreeWX-Wi 1.01,2013-07-26 11:56:00,
2013-07-26 05:01:00,54.7,52.2,30.03,North,-999,0.0,0.0,91,0.00,,,-99.99,FreeWX-Wi 1.01,2013-07-26 12:01:00,
2013-07-26 05:06:00,54.5,52.0,30.03,North,-999,0.0,0.0,91,0.00,,,-99.99,FreeWX-Wi 1.01,2013-07-26 12:06:00,
2013-07-26 05:11:00,54.3,51.8,30.03,North,-999,0.0,0.0,91,0.00,,,-99.99,FreeWX-Wi 1.01,2013-07-26 12:11:00,
2013-07-26 05:16:00,54.1,51.6,30.03,North,-999,0.0,0.0,91,0.00,,,-99.99,FreeWX-Wi 1.01,2013-07-26 12:16:00,
2013-07-26 05:21:00,53.8,51.3,30.03,North,-999,0.0,0.0,91,0.00,,,-99.99,FreeWX-Wi 1.01,2013-07-26 12:21:00,
2013-07-26 05:26:00,53.8,51.3,30.03,North,-999,0.0,0.0,91,0.00,,,-99.99,FreeWX-Wi 1.01,2013-07-26 12:26:00,
2013-07-26 05:31:00,53.6,51.1,30.03,North,-999,0.0,0.0,91,0.00,,,-99.99,FreeWX-Wi 1.01,2013-07-26 12:31:00,
2013-07-26 05:41:00,53.8,51.4,30.03,North,-999,0.0,0.0,92,0.00,,,-99.99,FreeWX-Wi 1.01,2013-07-26 12:41:00,
2013-07-26 05:46:00,53.6,51.3,30.03,North,-999,0.0,0.0,92,0.00,,,-99.99,FreeWX-Wi 1.01,2013-07-26 12:46:00,
2013-07-26 05:51:00,53.6,51.3,30.03,North,-999,0.0,2.2,92,0.00,,,-99.99,FreeWX-Wi 1.01,2013-07-26 12:51:00,
2013-07-26 05:56:00,53.6,51.3,30.03,North,-999,0.0,0.0,92,0.00,,,-99.99,FreeWX-Wi 1.01,2013-07-26 12:56:00,
2013-07-26 06:01:00,53.8,51.4,30.03,North,-999,0.0,0.0,92,0.00,,,-99.99,FreeWX-Wi 1.01,2013-07-26 13:01:00,
2013-07-26 06:06:00,54.1,51.8,30.03,North,-999,0.0,0.0,92,0.00,,,-99.99,FreeWX-Wi 1.01,2013-07-26 13:06:00,
2013-07-26 06:11:00,54.5,52.2,30.03,North,-999,0.0,0.0,92,0.00,,,-99.99,FreeWX-Wi 1.01,2013-07-26 13:11:00,
2013-07-26 06:16:00,55.0,52.7,30.03,North,-999,0.0,0.0,92,0.00,,,-99.99,FreeWX-Wi 1.01,2013-07-26 13:16:00,
2013-07-26 06:21:00,55.4,53.1,30.03,North,-999,0.0,0.0,92,0.00,,,-99.99,FreeWX-Wi 1.01,2013-07-26 13:21:00,
2013-07-26 06:27:00,55.9,53.6,30.03,North,-999,0.0,0.0,92,0.00,,,-99.99,FreeWX-Wi 1.01,2013-07-26 13:27:00,
2013-07-26 06:32:00,56.1,53.8,30.03,North,-999,0.0,0.0,92,0.00,,,-99.99,FreeWX-Wi 1.01,2013-07-26 13:32:00,
2013-07-26 06:37:00,56.5,54.5,30.03,North,-999,0.0,0.0,93,0.00,,,-99.99,FreeWX-Wi 1.01,2013-07-26 13:37:00,
2013-07-26 06:42:00,56.8,54.9,30.03,North,-999,0.0,0.0,93,0.00,,,-99.99,FreeWX-Wi 1.01,2013-07-26 13:42:00,
2013-07-26 06:47:00,57.0,55.0,30.03,North,-999,0.0,0.0,93,0.00,,,-99.99,FreeWX-Wi 1.01,2013-07-26 13:47:00,
2013-07-26 06:52:00,57.6,55.2,30.03,North,-999,0.0,3.1,92,0.00,,,-99.99,FreeWX-Wi 1.01,2013-07-26 13:52:00,
2013-07-26 06:57:00,58.1,55.8,30.03,North,-999,0.0,0.0,92,0.00,,,-99.99,FreeWX-Wi 1.01,2013-07-26 13:57:00,
2013-07-26 07:02:00,58.6,55.9,30.03,North,-999,0.0,2.7,91,0.00,,,-99.99,FreeWX-Wi 1.01,2013-07-26 14:02:00,
2013-07-26 07:07:00,59.2,55.9,30.03,North,-999,0.0,0.0,89,0.00,,,-99.99,FreeWX-Wi 1.01,2013-07-26 14:07:00,
2013-07-26 07:12:00,59.9,55.9,30.03,North,-999,0.0,0.0,87,0.00,,,-99.99,FreeWX-Wi 1.01,2013-07-26 14:12:00,
2013-07-26 07:17:00,60.1,54.9,30.03,North,-999,0.0,4.9,83,0.00,,,-99.99,FreeWX-Wi 1.01,2013-07-26 14:17:00,
2013-07-26 07:22:00,60.8,53.6,30.03,North,-999,0.0,3.1,77,0.00,,,-99.99,FreeWX-Wi 1.01,2013-07-26 14:22:00,
2013-07-26 07:27:00,61.9,52.3,30.03,North,-999,0.0,0.0,71,0.00,,,-99.99,FreeWX-Wi 1.01,2013-07-26 14:27:00,
2013-07-26 07:32:00,63.1,52.0,30.03,North,-999,0.0,3.1,67,0.00,,,-99.99,FreeWX-Wi 1.01,2013-07-26 14:32:00,
2013-07-26 07:37:00,64.0,50.4,30.03,North,-999,0.0,3.6,61,0.00,,,-99.99,FreeWX-Wi 1.01,2013-07-26 14:37:00,
2013-07-26 07:42:00,64.4,47.8,30.03,North,-999,0.0,4.0,55,0.00,,,-99.99,FreeWX-Wi 1.01,2013-07-26 14:42:00,
2013-07-26 07:47:00,65.1,48.6,30.03,ENE,70,1.0,4.0,55,0.00,,,-99.99,FreeWX-Wi 1.01,2013-07-26 14:47:00,
2013-07-26 07:52:00,65.7,48.0,30.03,ENE,65,1.0,6.3,53,0.00,,,-99.99,FreeWX-Wi 1.01,2013-07-26 14:52:00,
2013-07-26 07:57:00,66.0,48.4,30.03,ENE,62,1.0,4.0,53,0.00,,,-99.99,FreeWX-Wi 1.01,2013-07-26 14:57:00,
2013-07-26 08:02:00,66.7,47.5,30.03,NE,55,1.0,3.6,50,0.00,,,-99.99,FreeWX-Wi 1.01,2013-07-26 15:02:00,
2013-07-26 08:07:00,67.6,48.9,30.03,NE,45,1.0,0.0,51,0.00,,,-99.99,FreeWX-Wi 1.01,2013-07-26 15:07:00,
2013-07-26 08:12:00,68.2,46.6,30.03,NE,38,1.0,2.7,46,0.00,,,-99.99,FreeWX-Wi 1.01,2013-07-26 15:12:00,
2013-07-26 08:17:00,68.2,46.6,30.03,NE,40,1.0,3.1,46,0.00,,,-99.99,FreeWX-Wi 1.01,2013-07-26 15:17:00,
2013-07-26 08:22:00,68.5,46.9,30.06,North,-999,0.0,3.6,46,0.00,,,-99.99,FreeWX-Wi 1.01,2013-07-26 15:22:00,
2013-07-26 08:27:00,68.5,46.4,30.06,North,-999,0.0,2.7,45,0.00,,,-99.99,FreeWX-Wi 1.01,2013-07-26 15:27:00,
2013-07-26 08:32:00,68.4,46.8,30.06,North,-999,0.0,3.1,46,0.00,,,-99.99,FreeWX-Wi 1.01,2013-07-26 15:32:00,
2013-07-26 08:37:00,68.4,46.2,30.06,North,-999,0.0,2.7,45,0.00,,,-99.99,FreeWX-Wi 1.01,2013-07-26 15:37:00,
2013-07-26 08:42:00,68.2,46.6,30.06,North,-999,0.0,3.1,46,0.00,,,-99.99,FreeWX-Wi 1.01,2013-07-26 15:42:00,
2013-07-26 08:47:00,68.5,47.5,30.06,North,-999,0.0,3.1,47,0.00,,,-99.99,FreeWX-Wi 1.01,2013-07-26 15:47:00,
2013-07-26 08:52:00,69.3,47.7,30.06,North,-999,0.0,2.7,46,0.00,,,-99.99,FreeWX-Wi 1.01,2013-07-26 15:52:00,
2013-07-26 08:57:00,70.3,48.6,30.06,North,-999,0.0,3.1,46,0.00,,,-99.99,FreeWX-Wi 1.01,2013-07-26 15:57:00,
2013-07-26 09:02:00,70.9,47.3,30.06,North,-999,0.0,4.0,43,0.00,,,-99.99,FreeWX-Wi 1.01,2013-07-26 16:02:00,
2013-07-26 09:07:00,71.2,47.7,30.06,North,-999,0.0,3.1,43,0.00,,,-99.99,FreeWX-Wi 1.01,2013-07-26 16:07:00,
2013-07-26 09:13:00,71.6,47.8,30.06,North,-999,0.0,4.0,43,0.00,,,-99.99,FreeWX-Wi 1.01,2013-07-26 16:13:00,
2013-07-26 09:18:00,72.0,48.2,30.06,NE,46,1.0,3.6,43,0.00,,,-99.99,FreeWX-Wi 1.01,2013-07-26 16:18:00,
2013-07-26 09:23:00,72.0,48.2,30.06,ENE,58,1.0,4.0,43,0.00,,,-99.99,FreeWX-Wi 1.01,2013-07-26 16:23:00,
2013-07-26 09:28:00,72.7,48.2,30.06,East,79,1.0,3.6,42,0.00,,,-99.99,FreeWX-Wi 1.01,2013-07-26 16:28:00,
2013-07-26 09:33:00,73.4,48.2,30.06,East,96,1.0,3.1,41,0.00,,,-99.99,FreeWX-Wi 1.01,2013-07-26 16:33:00,
2013-07-26 09:38:00,72.9,47.8,30.06,East,96,1.0,5.4,41,0.00,,,-99.99,FreeWX-Wi 1.01,2013-07-26 16:38:00,
2013-07-26 09:43:00,72.5,48.0,30.06,East,95,1.0,3.6,42,0.00,,,-99.99,FreeWX-Wi 1.01,2013-07-26 16:43:00,
2013-07-26 09:48:00,73.0,48.6,30.06,East,101,2.0,2.7,42,0.00,,,-99.99,FreeWX-Wi 1.01,2013-07-26 16:48:00,
2013-07-26 09:53:00,74.1,48.9,30.06,ESE,118,2.0,4.0,41,0.00,,,-99.99,FreeWX-Wi 1.01,2013-07-26 16:53:00,
2013-07-26 09:58:00,74.5,48.6,30.06,SE,124,2.0,3.1,40,0.00,,,-99.99,FreeWX-Wi 1.01,2013-07-26 16:58:00,
2013-07-26 10:03:00,74.7,47.3,30.06,SE,137,2.0,3.6,38,0.00,,,-99.99,FreeWX-Wi 1.01,2013-07-26 17:03:00,
2013-07-26 10:08:00,75.2,47.1,30.06,SE,143,2.0,3.6,37,0.00,,,-99.99,FreeWX-Wi 1.01,2013-07-26 17:08:00,
2013-07-26 10:13:00,74.7,46.6,30.06,SE,133,1.0,4.0,37,0.00,,,-99.99,FreeWX-Wi 1.01,2013-07-26 17:13:00,
2013-07-26 10:18:00,75.6,47.5,30.06,SE,130,1.0,3.6,37,0.00,,,-99.99,FreeWX-Wi 1.01,2013-07-26 17:18:00,
2013-07-26 10:23:00,75.6,46.8,30.06,SE,124,1.0,4.0,36,0.00,,,-99.99,FreeWX-Wi 1.01,2013-07-26 17:23:00,
2013-07-26 10:28:00,75.6,47.5,30.06,SE,125,1.0,3.6,37,0.00,,,-99.99,FreeWX-Wi 1.01,2013-07-26 17:28:00,
2013-07-26 10:33:00,76.1,47.8,30.06,ESE,122,1.0,2.7,37,0.00,,,-99.99,FreeWX-Wi 1.01,2013-07-26 17:33:00,
2013-07-26 10:38:00,75.9,46.9,30.06,ESE,122,1.0,4.0,36,0.00,,,-99.99,FreeWX-Wi 1.01,2013-07-26 17:38:00,
2013-07-26 10:43:00,76.1,47.1,30.06,ESE,123,1.0,5.8,36,0.00,,,-99.99,FreeWX-Wi 1.01,2013-07-26 17:43:00,
2013-07-26 10:48:00,75.4,46.6,30.06,ESE,108,2.0,5.8,36,0.00,,,-99.99,FreeWX-Wi 1.01,2013-07-26 17:48:00,
2013-07-26 10:53:00,75.2,46.4,30.03,ESE,106,2.0,4.9,36,0.00,,,-99.99,FreeWX-Wi 1.01,2013-07-26 17:53:00,
2013-07-26 10:58:00,74.7,46.6,30.03,East,87,2.0,5.4,37,0.00,,,-99.99,FreeWX-Wi 1.01,2013-07-26 17:58:00,
2013-07-26 11:03:00,75.4,46.6,30.03,East,93,2.0,3.6,36,0.00,,,-99.99,FreeWX-Wi 1.01,2013-07-26 18:03:00,
2013-07-26 11:08:00,76.5,47.5,30.03,East,91,2.0,4.0,36,0.00,,,-99.99,FreeWX-Wi 1.01,2013-07-26 18:08:00,
2013-07-26 11:13:00,76.8,47.1,30.03,East,89,2.0,4.9,35,0.00,,,-99.99,FreeWX-Wi 1.01,2013-07-26 18:13:00,
2013-07-26 11:18:00,77.0,46.4,30.03,East,83,2.0,3.6,34,0.00,,,-99.99,FreeWX-Wi 1.01,2013-07-26 18:18:00,
2013-07-26 11:23:00,77.0,47.3,30.03,East,82,2.0,5.4,35,0.00,,,-99.99,FreeWX-Wi 1.01,2013-07-26 18:23:00,
2013-07-26 11:28:00,76.6,46.9,30.03,East,85,2.0,5.4,35,0.00,,,-99.99,FreeWX-Wi 1.01,2013-07-26 18:28:00,
2013-07-26 11:33:00,76.3,47.3,30.03,East,87,2.0,5.4,36,0.00,,,-99.99,FreeWX-Wi 1.01,2013-07-26 18:33:00,
2013-07-26 11:38:00,77.5,47.7,30.03,East,84,2.0,3.6,35,0.00,,,-99.99,FreeWX-Wi 1.01,2013-07-26 18:38:00,
2013-07-26 11:43:00,78.3,47.5,30.03,East,87,2.0,4.0,34,0.00,,,-99.99,FreeWX-Wi 1.01,2013-07-26 18:43:00,
2013-07-26 11:48:00,78.8,47.3,30.03,East,82,2.0,6.3,33,0.00,,,-99.99,FreeWX-Wi 1.01,2013-07-26 18:48:00,
2013-07-26 11:53:00,79.3,47.7,30.03,East,79,2.0,2.7,33,0.00,,,-99.99,FreeWX-Wi 1.01,2013-07-26 18:53:00,
2013-07-26 11:58:00,79.5,47.1,30.03,ENE,75,2.0,2.7,32,0.00,,,-99.99,FreeWX-Wi 1.01,2013-07-26 18:58:00,
2013-07-26 12:03:00,80.4,46.9,30.03,East,79,1.0,5.4,31,0.00,,,-99.99,FreeWX-Wi 1.01,2013-07-26 19:03:00,
2013-07-26 12:08:00,81.0,47.5,30.03,East,82,1.0,3.6,31,0.00,,,-99.99,FreeWX-Wi 1.01,2013-07-26 19:08:00,
2013-07-26 12:13:00,81.7,48.0,30.03,East,88,1.0,3.6,31,0.00,,,-99.99,FreeWX-Wi 1.01,2013-07-26 19:13:00,
2013-07-26 12:18:00,82.0,47.5,30.03,East,96,1.0,4.0,30,0.00,,,-99.99,FreeWX-Wi 1.01,2013-07-26 19:18:00,
2013-07-26 12:23:00,81.9,48.2,30.03,ENE,65,1.0,4.9,31,0.00,,,-99.99,FreeWX-Wi 1.01,2013-07-26 19:23:00,
2013-07-26 12:28:00,83.1,47.5,30.03,West,280,1.0,4.0,29,0.00,,,-99.99,FreeWX-Wi 1.01,2013-07-26 19:28:00,
2013-07-26 12:33:00,83.5,48.7,30.03,WSW,245,1.0,3.6,30,0.00,,,-99.99,FreeWX-Wi 1.01,2013-07-26 19:33:00,
2013-07-26 12:38:00,83.8,48.2,30.03,SW,232,1.0,7.6,29,0.00,,,-99.99,FreeWX-Wi 1.01,2013-07-26 19:38:00,
2013-07-26 12:43:00,84.2,48.4,30.03,SW,231,1.0,4.0,29,0.00,,,-99.99,FreeWX-Wi 1.01,2013-07-26 19:43:00,
2013-07-26 12:48:00,84.4,48.6,30.03,SW,232,1.0,4.0,29,0.00,,,-99.99,FreeWX-Wi 1.01,2013-07-26 19:48:00,
2013-07-26 12:53:00,84.2,48.4,30.03,SW,235,1.0,3.1,29,0.00,,,-99.99,FreeWX-Wi 1.01,2013-07-26 19:53:00,
2013-07-26 12:58:00,84.2,47.5,30.03,SW,218,2.0,4.9,28,0.00,,,-99.99,FreeWX-Wi 1.01,2013-07-26 19:58:00,
2013-07-26 13:03:00,84.7,48.9,30.03,SW,214,1.0,4.0,29,0.00,,,-99.99,FreeWX-Wi 1.01,2013-07-26 20:03:00,
2013-07-26 13:08:00,85.8,48.0,30.03,SW,217,1.0,4.9,27,0.00,,,-99.99,FreeWX-Wi 1.01,2013-07-26 20:08:00,
2013-07-26 13:13:00,86.2,48.2,30.03,SW,219,1.0,3.1,27,0.00,,,-99.99,FreeWX-Wi 1.01,2013-07-26 20:13:00,
2013-07-26 13:18:00,86.4,46.4,30.03,SW,225,1.0,5.4,25,0.00,,,-99.99,FreeWX-Wi 1.01,2013-07-26 20:18:00,
2013-07-26 13:23:00,85.6,46.8,30.03,SW,224,2.0,6.7,26,0.00,,,-99.99,FreeWX-Wi 1.01,2013-07-26 20:23:00,
2013-07-26 13:28:00,86.2,48.2,30.03,SW,230,2.0,5.4,27,0.00,,,-99.99,FreeWX-Wi 1.01,2013-07-26 20:28:00,
2013-07-26 13:33:00,87.1,46.9,30.03,SW,230,2.0,5.4,25,0.00,,,-99.99,FreeWX-Wi 1.01,2013-07-26 20:33:00,
2013-07-26 13:38:00,86.5,46.6,30.03,SW,236,1.0,4.9,25,0.00,,,-99.99,FreeWX-Wi 1.01,2013-07-26 20:38:00,
2013-07-26 13:43:00,86.2,44.1,30.03,SW,220,2.0,5.4,23,0.00,,,-99.99,FreeWX-Wi 1.01,2013-07-26 20:43:00,
2013-07-26 13:48:00,85.5,45.7,30.00,SW,221,2.0,4.0,25,0.00,,,-99.99,FreeWX-Wi 1.01,2013-07-26 20:48:00,
2013-07-26 13:53:00,84.9,45.1,30.00,SW,214,2.0,4.0,25,0.00,,,-99.99,FreeWX-Wi 1.01,2013-07-26 20:53:00,
2013-07-26 13:58:00,84.9,45.1,30.00,SW,216,2.0,4.5,25,0.00,,,-99.99,FreeWX-Wi 1.01,2013-07-26 20:58:00,
2013-07-26 14:08:00,86.7,44.4,30.00,WSW,241,2.0,3.1,23,0.00,,,-99.99,FreeWX-Wi 1.01,2013-07-26 21:08:00,
2013-07-26 14:13:00,86.5,43.2,30.00,WSW,249,1.0,3.6,22,0.00,,,-99.99,FreeWX-Wi 1.01,2013-07-26 21:13:00,
2013-07-26 14:18:00,86.7,43.3,30.00,WSW,251,1.0,4.0,22,0.00,,,-99.99,FreeWX-Wi 1.01,2013-07-26 21:18:00,
2013-07-26 14:23:00,87.3,43.7,30.00,WNW,293,1.0,4.9,22,0.00,,,-99.99,FreeWX-Wi 1.01,2013-07-26 21:23:00,
2013-07-26 14:28:00,87.4,43.9,30.00,WSW,257,1.0,5.8,22,0.00,,,-99.99,FreeWX-Wi 1.01,2013-07-26 21:28:00,
2013-07-26 14:33:00,87.3,42.4,30.00,WSW,252,1.0,5.4,21,0.00,,,-99.99,FreeWX-Wi 1.01,2013-07-26 21:33:00,
2013-07-26 14:43:00,87.4,42.6,30.00,West,260,2.0,3.6,21,0.00,,,-99.99,FreeWX-Wi 1.01,2013-07-26 21:43:00,
2013-07-26 14:48:00,88.0,41.9,30.00,West,281,2.0,4.0,20,0.00,,,-99.99,FreeWX-Wi 1.01,2013-07-26 21:48:00,
2013-07-26 14:53:00,88.0,41.9,30.00,WNW,295,2.0,3.6,20,0.00,,,-99.99,FreeWX-Wi 1.01,2013-07-26 21:53:00,
2013-07-26 14:58:00,88.0,41.9,30.00,WNW,289,2.0,4.0,20,0.00,,,-99.99,FreeWX-Wi 1.01,2013-07-26 21:58:00,
2013-07-26 15:03:00,88.3,40.8,30.00,WNW,293,1.0,4.5,19,0.00,,,-99.99,FreeWX-Wi 1.01,2013-07-26 22:03:00,
2013-07-26 15:08:00,88.2,40.6,30.00,WNW,292,1.0,6.3,19,0.00,,,-99.99,FreeWX-Wi 1.01,2013-07-26 22:08:00,
2013-07-26 15:13:00,88.0,40.5,30.00,WNW,295,1.0,3.6,19,0.00,,,-99.99,FreeWX-Wi 1.01,2013-07-26 22:13:00,
2013-07-26 15:18:00,88.5,41.0,30.00,WNW,286,1.0,4.0,19,0.00,,,-99.99,FreeWX-Wi 1.01,2013-07-26 22:18:00,
2013-07-26 15:23:00,88.7,41.2,30.00,WNW,282,1.0,4.0,19,0.00,,,-99.99,FreeWX-Wi 1.01,2013-07-26 22:23:00,
2013-07-26 15:28:00,88.2,42.1,30.00,WNW,292,1.0,3.1,20,0.00,,,-99.99,FreeWX-Wi 1.01,2013-07-26 22:28:00,
2013-07-26 15:33:00,87.3,41.2,30.00,WNW,299,1.0,4.0,20,0.00,,,-99.99,FreeWX-Wi 1.01,2013-07-26 22:33:00,
2013-07-26 15:38:00,86.7,40.8,30.00,NW,313,1.0,2.7,20,0.00,,,-99.99,FreeWX-Wi 1.01,2013-07-26 22:38:00,
2013-07-26 15:43:00,87.4,41.4,30.00,NW,310,1.0,0.0,20,0.00,,,-99.99,FreeWX-Wi 1.01,2013-07-26 22:43:00,
2013-07-26 15:48:00,87.8,41.7,30.00,NW,321,1.0,4.0,20,0.00,,,-99.99,FreeWX-Wi 1.01,2013-07-26 22:48:00,
2013-07-26 15:53:00,87.1,41.2,30.00,NNW,338,1.0,3.6,20,0.00,,,-99.99,FreeWX-Wi 1.01,2013-07-26 22:53:00,
2013-07-26 15:58:00,87.4,41.4,30.00,NNW,341,1.0,3.6,20,0.00,,,-99.99,FreeWX-Wi 1.01,2013-07-26 22:58:00,
2013-07-26 16:09:00,87.4,41.4,30.00,NNW,330,1.0,3.1,20,0.00,,,-99.99,FreeWX-Wi 1.01,2013-07-26 23:09:00,
2013-07-26 16:14:00,87.1,41.2,30.00,North,-999,0.0,3.6,20,0.00,,,-99.99,FreeWX-Wi 1.01,2013-07-26 23:14:00,
2013-07-26 16:19:00,86.2,40.5,30.00,North,-999,0.0,2.7,20,0.00,,,-99.99,FreeWX-Wi 1.01,2013-07-26 23:19:00,
2013-07-26 16:24:00,85.1,39.6,30.00,NW,315,1.0,3.1,20,0.00,,,-99.99,FreeWX-Wi 1.01,2013-07-26 23:24:00,
2013-07-26 16:29:00,84.9,39.4,30.00,NW,307,1.0,4.0,20,0.00,,,-99.99,FreeWX-Wi 1.01,2013-07-26 23:29:00,
2013-07-26 16:34:00,83.8,39.7,30.00,NW,313,1.0,3.1,21,0.00,,,-99.99,FreeWX-Wi 1.01,2013-07-26 23:34:00,
2013-07-26 16:39:00,83.1,39.2,30.00,WNW,298,1.0,6.3,21,0.00,,,-99.99,FreeWX-Wi 1.01,2013-07-26 23:39:00,
2013-07-26 16:44:00,82.9,39.0,30.00,NW,304,1.0,2.2,21,0.00,,,-99.99,FreeWX-Wi 1.01,2013-07-26 23:44:00,
2013-07-26 16:49:00,82.6,38.7,30.00,NW,319,1.0,5.8,21,0.00,,,-99.99,FreeWX-Wi 1.01,2013-07-26 23:49:00,
2013-07-26 16:54:00,82.4,38.5,30.00,North,358,1.0,3.6,21,0.00,,,-99.99,FreeWX-Wi 1.01,2013-07-26 23:54:00,
2013-07-26 16:59:00,81.9,38.1,30.00,NNE,17,1.0,2.7,21,0.00,,,-99.99,FreeWX-Wi 1.01,2013-07-26 23:59:00,
2013-07-26 17:04:00,81.9,39.2,30.00,North,3,1.0,3.1,22,0.00,,,-99.99,FreeWX-Wi 1.01,2013-07-27 00:04:00,
2013-07-26 17:09:00,81.7,39.2,30.00,North,0,1.0,3.1,22,0.00,,,-99.99,FreeWX-Wi 1.01,2013-07-27 00:09:00,
2013-07-26 17:14:00,81.9,38.1,30.00,North,1,1.0,4.0,21,0.00,,,-99.99,FreeWX-Wi 1.01,2013-07-27 00:14:00,
2013-07-26 17:19:00,81.7,37.9,29.97,NNW,347,1.0,4.0,21,0.00,,,-99.99,FreeWX-Wi 1.01,2013-07-27 00:19:00,
2013-07-26 17:24:00,81.3,36.3,29.97,North,351,1.0,2.7,20,0.00,,,-99.99,FreeWX-Wi 1.01,2013-07-27 00:24:00,
2013-07-26 17:29:00,80.8,36.0,29.97,North,6,1.0,4.0,20,0.00,,,-99.99,FreeWX-Wi 1.01,2013-07-27 00:29:00,
2013-07-26 17:34:00,80.4,36.9,29.97,NNW,341,1.0,3.6,21,0.00,,,-99.99,FreeWX-Wi 1.01,2013-07-27 00:34:00,
2013-07-26 17:39:00,80.4,36.9,29.97,NW,319,1.0,4.0,21,0.00,,,-99.99,FreeWX-Wi 1.01,2013-07-27 00:39:00,
2013-07-26 17:44:00,80.2,36.7,29.97,NW,319,1.0,4.0,21,0.00,,,-99.99,FreeWX-Wi 1.01,2013-07-27 00:44:00,
2013-07-26 17:49:00,80.2,37.9,29.97,NW,320,1.0,3.1,22,0.00,,,-99.99,FreeWX-Wi 1.01,2013-07-27 00:49:00,
2013-07-26 17:54:00,80.2,39.0,29.97,NNW,335,1.0,4.0,23,0.00,,,-99.99,FreeWX-Wi 1.01,2013-07-27 00:54:00,
2013-07-26 17:59:00,81.0,39.7,29.97,NNW,338,1.0,2.2,23,0.00,,,-99.99,FreeWX-Wi 1.01,2013-07-27 00:59:00,
2013-07-26 18:04:00,81.0,39.7,29.97,North,349,1.0,3.6,23,0.00,,,-99.99,FreeWX-Wi 1.01,2013-07-27 01:04:00,
2013-07-26 18:09:00,80.8,39.6,29.97,North,351,1.0,2.7,23,0.00,,,-99.99,FreeWX-Wi 1.01,2013-07-27 01:09:00,
2013-07-26 18:14:00,80.2,39.0,29.97,North,354,1.0,7.2,23,0.00,,,-99.99,FreeWX-Wi 1.01,2013-07-27 01:14:00,
2013-07-26 18:19:00,79.5,38.5,29.97,North,7,1.0,3.1,23,0.00,,,-99.99,FreeWX-Wi 1.01,2013-07-27 01:19:00,
2013-07-26 18:24:00,79.2,38.1,29.97,NNE,17,1.0,3.6,23,0.00,,,-99.99,FreeWX-Wi 1.01,2013-07-27 01:24:00,
2013-07-26 18:29:00,78.6,37.8,29.97,North,-999,0.0,3.1,23,0.00,,,-99.99,FreeWX-Wi 1.01,2013-07-27 01:29:00,
2013-07-26 18:34:00,78.4,37.6,29.97,North,-999,0.0,2.2,23,0.00,,,-99.99,FreeWX-Wi 1.01,2013-07-27 01:34:00,
2013-07-26 18:39:00,78.1,36.1,29.97,North,-999,0.0,3.6,22,0.00,,,-99.99,FreeWX-Wi 1.01,2013-07-27 01:39:00,
2013-07-26 18:44:00,77.9,36.0,29.97,North,-999,0.0,3.6,22,0.00,,,-99.99,FreeWX-Wi 1.01,2013-07-27 01:44:00,
2013-07-26 18:49:00,77.7,35.8,29.97,North,-999,0.0,3.1,22,0.00,,,-99.99,FreeWX-Wi 1.01,2013-07-27 01:49:00,
2013-07-26 18:54:00,77.5,35.6,29.97,North,-999,0.0,3.6,22,0.00,,,-99.99,FreeWX-Wi 1.01,2013-07-27 01:54:00,
2013-07-26 18:59:00,77.2,35.4,29.97,North,-999,0.0,2.7,22,0.00,,,-99.99,FreeWX-Wi 1.01,2013-07-27 01:59:00,
2013-07-26 19:04:00,76.8,35.1,29.97,North,-999,0.0,0.0,22,0.00,,,-99.99,FreeWX-Wi 1.01,2013-07-27 02:04:00,
2013-07-26 19:09:00,76.6,34.9,29.97,North,-999,0.0,4.9,22,0.00,,,-99.99,FreeWX-Wi 1.01,2013-07-27 02:09:00,
2013-07-26 19:14:00,76.3,34.7,29.97,North,-999,0.0,3.6,22,0.00,,,-99.99,FreeWX-Wi 1.01,2013-07-27 02:14:00,
2013-07-26 19:19:00,75.9,34.3,29.97,NNE,21,1.0,3.6,22,0.00,,,-99.99,FreeWX-Wi 1.01,2013-07-27 02:19:00,
2013-07-26 19:29:00,75.0,34.7,29.97,NNE,20,1.0,2.7,23,0.00,,,-99.99,FreeWX-Wi 1.01,2013-07-27 02:29:00,
2013-07-26 19:34:00,74.5,34.2,29.97,NNE,20,1.0,0.0,23,0.00,,,-99.99,FreeWX-Wi 1.01,2013-07-27 02:34:00,
2013-07-26 19:39:00,74.1,34.0,29.97,North,-999,0.0,3.1,23,0.00,,,-99.99,FreeWX-Wi 1.01,2013-07-27 02:39:00,
2013-07-26 19:44:00,73.8,33.6,29.97,North,-999,0.0,0.0,23,0.00,,,-99.99,FreeWX-Wi 1.01,2013-07-27 02:44:00,
2013-07-26 19:49:00,73.4,34.3,29.97,NNE,25,1.0,5.4,24,0.00,,,-99.99,FreeWX-Wi 1.01,2013-07-27 02:49:00,
2013-07-26 19:54:00,73.2,34.3,29.97,NNE,25,1.0,6.3,24,0.00,,,-99.99,FreeWX-Wi 1.01,2013-07-27 02:54:00,
2013-07-26 19:59:00,72.9,34.0,29.97,NNE,26,1.0,3.1,24,0.00,,,-99.99,FreeWX-Wi 1.01,2013-07-27 02:59:00,
2013-07-26 20:04:00,72.3,33.4,29.97,NNE,26,1.0,6.3,24,0.00,,,-99.99,FreeWX-Wi 1.01,2013-07-27 03:04:00,
2013-07-26 20:09:00,72.0,34.2,29.97,NNE,26,1.0,3.1,25,0.00,,,-99.99,FreeWX-Wi 1.01,2013-07-27 03:09:00,
2013-07-26 20:14:00,71.6,34.9,29.97,NNE,27,1.0,4.0,26,0.00,,,-99.99,FreeWX-Wi 1.01,2013-07-27 03:14:00,
2013-07-26 20:19:00,71.1,35.4,29.97,NNE,26,1.0,2.7,27,0.00,,,-99.99,FreeWX-Wi 1.01,2013-07-27 03:19:00,
2013-07-26 20:24:00,70.7,36.0,29.97,NNE,24,1.0,2.7,28,0.00,,,-99.99,FreeWX-Wi 1.01,2013-07-27 03:24:00,
2013-07-26 20:29:00,70.2,38.1,29.97,NNE,21,1.0,3.6,31,0.00,,,-99.99,FreeWX-Wi 1.01,2013-07-27 03:29:00,
2013-07-26 20:34:00,69.8,38.7,29.97,NNE,19,1.0,3.1,32,0.00,,,-99.99,FreeWX-Wi 1.01,2013-07-27 03:34:00,
2013-07-26 20:39:00,69.4,39.0,29.97,NNE,20,1.0,3.1,33,0.00,,,-99.99,FreeWX-Wi 1.01,2013-07-27 03:39:00,
2013-07-26 20:44:00,69.3,38.8,29.97,NNE,21,1.0,2.7,33,0.00,,,-99.99,FreeWX-Wi 1.01,2013-07-27 03:44:00,
2013-07-26 20:49:00,68.9,38.7,29.97,NNE,21,1.0,0.0,33,0.00,,,-99.99,FreeWX-Wi 1.01,2013-07-27 03:49:00,
2013-07-26 20:54:00,68.5,39.0,29.97,NNE,18,1.0,2.7,34,0.00,,,-99.99,FreeWX-Wi 1.01,2013-07-27 03:54:00,
2013-07-26 20:59:00,68.4,38.8,29.97,NNE,18,1.0,2.7,34,0.00,,,-99.99,FreeWX-Wi 1.01,2013-07-27 03:59:00,
2013-07-26 21:04:00,68.2,38.7,30.00,NNE,18,1.0,0.0,34,0.00,,,-99.99,FreeWX-Wi 1.01,2013-07-27 04:04:00,
2013-07-26 21:09:00,68.0,37.8,30.00,NNE,18,1.0,3.1,33,0.00,,,-99.99,FreeWX-Wi 1.01,2013-07-27 04:09:00,
2013-07-26 21:14:00,67.8,38.5,30.00,NNE,17,1.0,2.7,34,0.00,,,-99.99,FreeWX-Wi 1.01,2013-07-27 04:14:00,
2013-07-26 21:19:00,67.5,38.8,30.00,NNE,17,1.0,2.7,35,0.00,,,-99.99,FreeWX-Wi 1.01,2013-07-27 04:19:00,
2013-07-26 21:24:00,67.1,38.5,30.00,NNE,19,1.0,3.6,35,0.00,,,-99.99,FreeWX-Wi 1.01,2013-07-27 04:24:00,
2013-07-26 21:29:00,66.7,38.8,30.00,NNE,21,1.0,2.7,36,0.00,,,-99.99,FreeWX-Wi 1.01,2013-07-27 04:29:00,
2013-07-26 21:34:00,66.6,38.8,30.00,NNE,21,1.0,0.0,36,0.00,,,-99.99,FreeWX-Wi 1.01,2013-07-27 04:34:00,
2013-07-26 21:39:00,66.4,38.7,30.00,NNE,21,1.0,0.0,36,0.00,,,-99.99,FreeWX-Wi 1.01,2013-07-27 04:39:00,
2013-07-26 21:44:00,66.2,38.5,30.00,NNE,22,1.0,4.0,36,0.00,,,-99.99,FreeWX-Wi 1.01,2013-07-27 04:44:00,
2013-07-26 21:49:00,65.8,38.8,30.00,NNE,22,1.0,0.0,37,0.00,,,-99.99,FreeWX-Wi 1.01,2013-07-27 04:49:00,
2013-07-26 21:54:00,65.7,39.4,30.00,NNE,23,1.0,4.0,38,0.00,,,-99.99,FreeWX-Wi 1.01,2013-07-27 04:54:00,
2013-07-26 21:59:00,65.5,39.2,30.00,NNE,23,1.0,0.0,38,0.00,,,-99.99,FreeWX-Wi 1.01,2013-07-27 04:59:00,
2013-07-26 22:04:00,65.1,39.6,30.03,NNE,26,1.0,3.1,39,0.00,,,-99.99,FreeWX-Wi 1.01,2013-07-27 05:04:00,
2013-07-26 22:09:00,64.9,38.7,30.03,NNE,26,1.0,0.0,38,0.00,,,-99.99,FreeWX-Wi 1.01,2013-07-27 05:09:00,
2013-07-26 22:14:00,64.8,38.5,30.03,NNE,26,1.0,3.6,38,0.00,,,-99.99,FreeWX-Wi 1.01,2013-07-27 05:14:00,
2013-07-26 22:19:00,64.8,37.9,30.03,NNE,26,1.0,4.9,37,0.00,,,-99.99,FreeWX-Wi 1.01,2013-07-27 05:19:00,
2013-07-26 22:24:00,64.6,37.8,30.03,NNE,26,1.0,0.0,37,0.00,,,-99.99,FreeWX-Wi 1.01,2013-07-27 05:24:00,
2013-07-26 22:29:00,64.2,38.1,30.03,NNE,26,1.0,2.2,38,0.00,,,-99.99,FreeWX-Wi 1.01,2013-07-27 05:29:00,
2013-07-26 22:34:00,64.0,38.7,30.03,NNE,26,1.0,0.0,39,0.00,,,-99.99,FreeWX-Wi 1.01,2013-07-27 05:34:00,
2013-07-26 22:39:00,63.9,38.5,30.03,NNE,27,2.0,2.7,39,0.00,,,-99.99,FreeWX-Wi 1.01,2013-07-27 05:39:00,
2013-07-26 22:44:00,63.5,39.9,30.03,NNE,26,2.0,4.9,42,0.00,,,-99.99,FreeWX-Wi 1.01,2013-07-27 05:44:00,
2013-07-26 22:49:00,63.3,40.5,30.03,NNE,27,2.0,3.6,43,0.00,,,-99.99,FreeWX-Wi 1.01,2013-07-27 05:49:00,
2013-07-26 22:54:00,63.1,40.3,30.03,NNE,28,2.0,3.1,43,0.00,,,-99.99,FreeWX-Wi 1.01,2013-07-27 05:54:00,
2013-07-26 22:59:00,62.8,39.9,30.03,NNE,29,2.0,0.0,43,0.00,,,-99.99,FreeWX-Wi 1.01,2013-07-27 05:59:00,
2013-07-26 23:04:00,62.2,40.1,30.03,NNE,30,2.0,0.0,44,0.00,,,-99.99,FreeWX-Wi 1.01,2013-07-27 06:04:00,
2013-07-26 23:09:00,62.1,39.9,30.03,NNE,30,2.0,0.0,44,0.00,,,-99.99,FreeWX-Wi 1.01,2013-07-27 06:09:00,
2013-07-26 23:14:00,61.5,39.4,30.03,NNE,30,2.0,0.0,44,0.00,,,-99.99,FreeWX-Wi 1.01,2013-07-27 06:14:00,
2013-07-26 23:19:00,61.0,38.8,30.03,NNE,30,2.0,0.0,44,0.00,,,-99.99,FreeWX-Wi 1.01,2013-07-27 06:19:00,
2013-07-26 23:24:00,60.8,39.4,30.03,NNE,31,2.0,0.0,45,0.00,,,-99.99,FreeWX-Wi 1.01,2013-07-27 06:24:00,
2013-07-26 23:29:00,60.4,39.6,30.03,NNE,31,2.0,0.0,46,0.00,,,-99.99,FreeWX-Wi 1.01,2013-07-27 06:29:00,
2013-07-26 23:34:00,60.1,39.2,30.03,NNE,31,1.0,0.0,46,0.00,,,-99.99,FreeWX-Wi 1.01,2013-07-27 06:34:00,
2013-07-26 23:39:00,60.4,40.1,30.03,NNE,33,1.0,3.1,47,0.00,,,-99.99,FreeWX-Wi 1.01,2013-07-27 06:39:00,
2013-07-26 23:44:00,60.4,40.1,30.03,NE,35,1.0,2.7,47,0.00,,,-99.99,FreeWX-Wi 1.01,2013-07-27 06:44:00,
2013-07-26 23:49:00,60.4,39.6,30.03,NE,36,1.0,0.0,46,0.00,,,-99.99,FreeWX-Wi 1.01,2013-07-27 06:49:00,
2013-07-26 23:54:00,60.3,39.4,30.03,NE,38,1.0,0.0,46,0.00,,,-99.99,FreeWX-Wi 1.01,2013-07-27 06:54:00,
2013-07-26 23:59:00,59.9,39.0,30.03,NE,38,1.0,0.0,46,0.00,,,-99.99,FreeWX-Wi 1.01,2013-07-27 06:59:00,